createdAt,value
2023-05-08T00:05:49.291Z,11.17
2023-05-08T00:21:06.968Z,10.20
2023-05-08T00:36:10.003Z,9.77
2023-05-08T00:51:16.753Z,9.80
2023-05-08T01:06:39.523Z,10.27
2023-05-08T01:21:59.341Z,9.77
2023-05-08T01:37:08.566Z,10.73
2023-05-08T01:52:20.918Z,11.43
2023-05-08T02:07:25.335Z,11.90
2023-05-08T02:22:33.372Z,12.40
2023-05-08T02:37:57.256Z,12.43
2023-05-08T02:53:31.834Z,11.70
2023-05-08T03:08:36.102Z,11.97
2023-05-08T03:23:41.626Z,12.63
2023-05-08T03:39:03.345Z,12.57
2023-05-08T03:54:09.440Z,13.43
2023-05-08T04:09:38.381Z,12.73
2023-05-08T04:24:57.783Z,13.57
2023-05-08T04:40:05.260Z,12.87
2023-05-08T04:55:13.880Z,13.13
2023-05-08T05:10:21.122Z,12.17
2023-05-08T05:25:41.370Z,12.97
2023-05-08T05:40:45.215Z,12.70
2023-05-08T05:55:51.686Z,14.00
2023-05-08T06:10:54.507Z,14.30
2023-05-08T06:25:57.563Z,15.13
2023-05-08T06:41:03.555Z,15.90
2023-05-08T06:56:21.001Z,15.73
2023-05-08T07:11:23.942Z,16.77
2023-05-08T07:26:41.412Z,17.90
2023-05-08T07:41:47.151Z,20.90
2023-05-08T07:56:51.208Z,15.33
2023-05-08T08:11:53.911Z,16.50
2023-05-08T08:26:59.774Z,14.13
2023-05-08T08:42:06.043Z,13.37
2023-05-08T08:57:10.028Z,12.07
2023-05-08T09:12:16.525Z,17.87
2023-05-08T09:27:33.264Z,15.57
2023-05-08T09:42:51.070Z,17.20
2023-05-08T09:57:57.099Z,14.57
2023-05-08T10:12:59.662Z,15.73
2023-05-08T10:28:28.384Z,15.23
2023-05-08T10:43:34.524Z,15.87
2023-05-08T10:58:40.702Z,17.40
2023-05-08T11:14:12.035Z,19.00
2023-05-08T11:29:28.370Z,19.37
2023-05-08T11:44:35.201Z,20.63
2023-05-08T11:59:42.365Z,31.17
2023-05-08T12:14:51.061Z,24.60
2023-05-08T12:29:58.901Z,16.40
2023-05-08T12:45:01.830Z,18.57
2023-05-08T13:00:18.685Z,12.87
2023-05-08T13:15:25.285Z,10.00
2023-05-08T13:30:28.305Z,7.90
2023-05-08T13:45:37.830Z,9.13
2023-05-08T14:00:40.467Z,10.53
2023-05-08T14:15:43.343Z,9.57
2023-05-08T14:30:55.938Z,10.70
2023-05-08T14:46:01.157Z,10.37
2023-05-08T15:01:05.317Z,10.27
2023-05-08T15:16:22.057Z,9.40
2023-05-08T15:31:25.075Z,8.50
2023-05-08T15:46:27.612Z,6.10
2023-05-08T16:01:33.868Z,7.20
2023-05-08T16:16:39.105Z,4.27
2023-05-08T16:31:56.428Z,6.23
2023-05-08T16:47:14.802Z,6.20
2023-05-08T17:02:32.153Z,5.87
2023-05-08T17:17:50.724Z,6.70
2023-05-08T17:32:54.276Z,8.30
2023-05-08T17:47:57.027Z,6.90
2023-05-08T18:03:02.197Z,6.30
2023-05-08T18:18:08.666Z,6.57
2023-05-08T18:33:15.126Z,7.93
2023-05-08T18:48:18.100Z,6.90
2023-05-08T19:03:22.811Z,7.17
2023-05-08T19:18:30.367Z,6.37
2023-05-08T19:33:36.391Z,7.30
2023-05-08T19:48:52.648Z,6.83
2023-05-08T20:03:57.512Z,7.13
2023-05-08T20:19:15.678Z,6.50
2023-05-08T20:34:32.360Z,6.13
2023-05-08T20:49:49.339Z,6.10
2023-05-08T21:04:55.384Z,6.97
2023-05-08T21:20:12.497Z,7.07
2023-05-08T21:35:29.108Z,6.97
2023-05-08T21:50:46.367Z,6.90
2023-05-08T22:06:03.743Z,7.70
2023-05-08T22:21:09.819Z,11.00
2023-05-08T22:36:16.167Z,16.50
2023-05-08T22:51:27.721Z,15.53
2023-05-08T23:06:45.178Z,17.20
2023-05-08T23:22:02.082Z,17.77
2023-05-08T23:37:18.927Z,16.33
2023-05-08T23:52:21.700Z,16.40
